sensor_id;sensor_type;location;lat;lon;timestamp;pressure;altitude;pressure_sealevel;temperature;humidity
13314;BME280;6725;48.112;11.604;2022-12-18T00:01:03;95551.66;;;-4.32;100.00
13314;BME280;6725;48.112;11.604;2022-12-18T00:03:35;95540.41;;;-4.29;100.00
13314;BME280;6725;48.112;11.604;2022-12-18T00:06:01;95530.09;;;-4.22;100.00
13314;BME280;6725;48.112;11.604;2022-12-18T00:08:26;95521.44;;;-4.28;100.00
13314;BME280;6725;48.112;11.604;2022-12-18T00:10:52;95519.59;;;-4.19;100.00
13314;BME280;6725;48.112;11.604;2022-12-18T00:13:17;95515.78;;;-4.35;100.00
13314;BME280;6725;48.112;11.604;2022-12-18T00:15:43;95503.19;;;-4.43;100.00
13314;BME280;6725;48.112;11.604;2022-12-18T00:18:08;95499.59;;;-4.38;100.00
13314;BME280;6725;48.112;11.604;2022-12-18T00:20:38;95498.53;;;-4.29;100.00
13314;BME280;6725;48.112;11.604;2022-12-18T00:23:04;95502.91;;;-4.33;100.00
13314;BME280;6725;48.112;11.604;2022-12-18T00:25:32;95490.09;;;-4.31;100.00
13314;BME280;6725;48.112;11.604;2022-12-18T00:27:57;95488.19;;;-4.39;100.00
13314;BME280;6725;48.112;11.604;2022-12-18T00:30:23;95474.50;;;-4.46;100.00
13314;BME280;6725;48.112;11.604;2022-12-18T00:32:48;95472.53;;;-4.32;100.00
13314;BME280;6725;48.112;11.604;2022-12-18T00:35:14;95484.41;;;-4.38;100.00
13314;BME280;6725;48.112;11.604;2022-12-18T00:37:39;95492.72;;;-4.39;100.00
13314;BME280;6725;48.112;11.604;2022-12-18T00:40:05;95494.16;;;-4.33;100.00
13314;BME280;6725;48.112;11.604;2022-12-18T00:42:30;95487.06;;;-4.38;100.00
13314;BME280;6725;48.112;11.604;2022-12-18T00:45:14;95485.03;;;-4.41;100.00
13314;BME280;6725;48.112;11.604;2022-12-18T00:47:40;95482.63;;;-4.51;100.00
13314;BME280;6725;48.112;11.604;2022-12-18T00:50:06;95483.09;;;-4.49;100.00
13314;BME280;6725;48.112;11.604;2022-12-18T00:52:34;95476.38;;;-4.46;100.00
13314;BME280;6725;48.112;11.604;2022-12-18T00:54:59;95477.63;;;-4.44;100.00
13314;BME280;6725;48.112;11.604;2022-12-18T00:57:24;95470.19;;;-4.33;100.00
13314;BME280;6725;48.112;11.604;2022-12-18T00:59:49;95475.28;;;-4.45;100.00
13314;BME280;6725;48.112;11.604;2022-12-18T01:02:15;95482.16;;;-4.53;100.00
13314;BME280;6725;48.112;11.604;2022-12-18T01:04:40;95478.28;;;-4.47;100.00
13314;BME280;6725;48.112;11.604;2022-12-18T01:07:05;95473.41;;;-4.45;100.00
13314;BME280;6725;48.112;11.604;2022-12-18T01:09:31;95483.41;;;-4.50;100.00
13314;BME280;6725;48.112;11.604;2022-12-18T01:11:56;95491.59;;;-4.47;100.00
13314;BME280;6725;48.112;11.604;2022-12-18T01:14:21;95491.91;;;-4.40;100.00
13314;BME280;6725;48.112;11.604;2022-12-18T01:16:47;95489.75;;;-4.38;100.00
13314;BME280;6725;48.112;11.604;2022-12-18T01:19:12;95495.50;;;-4.44;100.00
13314;BME280;6725;48.112;11.604;2022-12-18T01:21:38;95507.56;;;-4.47;100.00
13314;BME280;6725;48.112;11.604;2022-12-18T01:24:04;95510.50;;;-4.57;100.00
13314;BME280;6725;48.112;11.604;2022-12-18T01:26:29;95525.19;;;-4.59;100.00
13314;BME280;6725;48.112;11.604;2022-12-18T01:28:55;95518.19;;;-4.55;100.00
13314;BME280;6725;48.112;11.604;2022-12-18T01:31:26;95528.88;;;-4.47;100.00
13314;BME280;6725;48.112;11.604;2022-12-18T01:33:53;95530.59;;;-4.42;100.00
13314;BME280;6725;48.112;11.604;2022-12-18T01:36:30;95526.81;;;-4.50;100.00
13314;BME280;6725;48.112;11.604;2022-12-18T01:38:56;95524.63;;;-4.48;100.00
13314;BME280;6725;48.112;11.604;2022-12-18T01:41:24;95525.28;;;-4.42;100.00
13314;BME280;6725;48.112;11.604;2022-12-18T01:43:53;95528.75;;;-4.42;100.00
13314;BME280;6725;48.112;11.604;2022-12-18T01:46:20;95538.28;;;-4.41;100.00
13314;BME280;6725;48.112;11.604;2022-12-18T01:48:48;95544.50;;;-4.54;100.00
13314;BME280;6725;48.112;11.604;2022-12-18T01:51:15;95546.22;;;-4.49;100.00
13314;BME280;6725;48.112;11.604;2022-12-18T01:53:42;95552.00;;;-4.56;100.00
13314;BME280;6725;48.112;11.604;2022-12-18T01:56:13;95545.56;;;-4.55;100.00
13314;BME280;6725;48.112;11.604;2022-12-18T02:01:09;95542.91;;;-4.55;100.00
13314;BME280;6725;48.112;11.604;2022-12-18T02:03:34;95545.47;;;-4.50;100.00
13314;BME280;6725;48.112;11.604;2022-12-18T02:06:20;95547.78;;;-4.57;100.00
13314;BME280;6725;48.112;11.604;2022-12-18T02:09:07;95547.63;;;-4.52;100.00
13314;BME280;6725;48.112;11.604;2022-12-18T02:11:49;95536.50;;;-4.54;100.00
13314;BME280;6725;48.112;11.604;2022-12-18T02:19:39;95518.03;;;-4.50;100.00
13314;BME280;6725;48.112;11.604;2022-12-18T02:25:29;95538.06;;;-4.53;100.00
13314;BME280;6725;48.112;11.604;2022-12-18T02:28:00;95536.03;;;-4.56;100.00
13314;BME280;6725;48.112;11.604;2022-12-18T02:30:29;95534.50;;;-4.48;100.00
13314;BME280;6725;48.112;11.604;2022-12-18T02:32:57;95532.63;;;-4.48;100.00
13314;BME280;6725;48.112;11.604;2022-12-18T02:35:26;95536.97;;;-4.52;100.00
13314;BME280;6725;48.112;11.604;2022-12-18T02:37:53;95539.78;;;-4.57;100.00
13314;BME280;6725;48.112;11.604;2022-12-18T02:40:20;95532.44;;;-4.51;100.00
13314;BME280;6725;48.112;11.604;2022-12-18T02:42:47;95526.16;;;-4.55;100.00
13314;BME280;6725;48.112;11.604;2022-12-18T02:45:12;95524.91;;;-4.58;100.00
13314;BME280;6725;48.112;11.604;2022-12-18T02:47:39;95525.66;;;-4.57;100.00
13314;BME280;6725;48.112;11.604;2022-12-18T02:50:26;95520.66;;;-4.59;100.00
13314;BME280;6725;48.112;11.604;2022-12-18T02:58:11;95534.47;;;-4.57;100.00
13314;BME280;6725;48.112;11.604;2022-12-18T03:00:46;95538.38;;;-4.54;100.00
13314;BME280;6725;48.112;11.604;2022-12-18T03:03:17;95537.13;;;-4.57;100.00
13314;BME280;6725;48.112;11.604;2022-12-18T03:05:48;95537.59;;;-4.55;100.00
13314;BME280;6725;48.112;11.604;2022-12-18T03:08:24;95532.63;;;-4.48;100.00
13314;BME280;6725;48.112;11.604;2022-12-18T03:11:02;95545.53;;;-4.63;100.00
13314;BME280;6725;48.112;11.604;2022-12-18T03:13:42;95529.72;;;-4.60;100.00
13314;BME280;6725;48.112;11.604;2022-12-18T03:16:13;95527.56;;;-4.58;100.00
13314;BME280;6725;48.112;11.604;2022-12-18T03:18:56;95522.84;;;-4.61;100.00
13314;BME280;6725;48.112;11.604;2022-12-18T03:21:28;95525.59;;;-4.66;100.00
13314;BME280;6725;48.112;11.604;2022-12-18T03:23:55;95516.56;;;-4.65;100.00
13314;BME280;6725;48.112;11.604;2022-12-18T03:26:23;95530.69;;;-4.56;100.00
13314;BME280;6725;48.112;11.604;2022-12-18T03:28:53;95519.44;;;-4.53;100.00
13314;BME280;6725;48.112;11.604;2022-12-18T03:31:23;95520.69;;;-4.50;100.00
13314;BME280;6725;48.112;11.604;2022-12-18T03:33:59;95517.56;;;-4.52;100.00
13314;BME280;6725;48.112;11.604;2022-12-18T03:36:26;95530.78;;;-4.39;100.00
13314;BME280;6725;48.112;11.604;2022-12-18T03:38:52;95529.34;;;-4.45;100.00
13314;BME280;6725;48.112;11.604;2022-12-18T03:41:43;95541.34;;;-4.56;100.00
13314;BME280;6725;48.112;11.604;2022-12-18T03:44:21;95543.28;;;-4.48;100.00
13314;BME280;6725;48.112;11.604;2022-12-18T03:54:30;95545.16;;;-4.48;100.00
13314;BME280;6725;48.112;11.604;2022-12-18T03:57:01;95540.97;;;-4.41;100.00
13314;BME280;6725;48.112;11.604;2022-12-18T03:59:30;95539.19;;;-4.45;100.00
13314;BME280;6725;48.112;11.604;2022-12-18T04:01:57;95541.56;;;-4.44;100.00
13314;BME280;6725;48.112;11.604;2022-12-18T04:04:25;95546.28;;;-4.41;100.00
13314;BME280;6725;48.112;11.604;2022-12-18T04:06:53;95547.75;;;-4.35;100.00
13314;BME280;6725;48.112;11.604;2022-12-18T04:09:19;95552.28;;;-4.35;100.00
13314;BME280;6725;48.112;11.604;2022-12-18T04:11:46;95550.41;;;-4.35;100.00
13314;BME280;6725;48.112;11.604;2022-12-18T04:14:12;95560.47;;;-4.32;100.00
13314;BME280;6725;48.112;11.604;2022-12-18T04:16:37;95566.84;;;-4.33;100.00
13314;BME280;6725;48.112;11.604;2022-12-18T04:19:03;95554.19;;;-4.27;100.00
13314;BME280;6725;48.112;11.604;2022-12-18T04:21:28;95574.13;;;-4.25;100.00
13314;BME280;6725;48.112;11.604;2022-12-18T04:23:54;95579.22;;;-4.37;100.00
13314;BME280;6725;48.112;11.604;2022-12-18T04:26:19;95575.59;;;-4.41;100.00
13314;BME280;6725;48.112;11.604;2022-12-18T04:28:45;95585.66;;;-4.38;100.00
13314;BME280;6725;48.112;11.604;2022-12-18T04:31:10;95587.56;;;-4.30;100.00
13314;BME280;6725;48.112;11.604;2022-12-18T04:33:35;95589.41;;;-4.39;100.00
13314;BME280;6725;48.112;11.604;2022-12-18T04:36:01;95603.69;;;-4.35;100.00
13314;BME280;6725;48.112;11.604;2022-12-18T04:38:26;95604.53;;;-4.48;100.00
13314;BME280;6725;48.112;11.604;2022-12-18T04:40:52;95608.16;;;-4.44;100.00
13314;BME280;6725;48.112;11.604;2022-12-18T04:43:17;95612.41;;;-4.43;100.00
13314;BME280;6725;48.112;11.604;2022-12-18T04:45:42;95612.72;;;-4.44;100.00
13314;BME280;6725;48.112;11.604;2022-12-18T04:48:08;95617.63;;;-4.38;100.00
13314;BME280;6725;48.112;11.604;2022-12-18T04:50:33;95625.38;;;-4.50;100.00
13314;BME280;6725;48.112;11.604;2022-12-18T04:52:58;95633.22;;;-4.45;100.00
13314;BME280;6725;48.112;11.604;2022-12-18T04:55:24;95647.28;;;-4.53;100.00
13314;BME280;6725;48.112;11.604;2022-12-18T04:57:49;95653.72;;;-4.54;100.00
13314;BME280;6725;48.112;11.604;2022-12-18T05:00:15;95657.50;;;-4.46;100.00
13314;BME280;6725;48.112;11.604;2022-12-18T05:02:40;95654.91;;;-4.38;100.00
13314;BME280;6725;48.112;11.604;2022-12-18T05:05:06;95654.75;;;-4.41;100.00
13314;BME280;6725;48.112;11.604;2022-12-18T05:07:31;95656.75;;;-4.47;100.00
13314;BME280;6725;48.112;11.604;2022-12-18T05:09:57;95668.84;;;-4.41;100.00
13314;BME280;6725;48.112;11.604;2022-12-18T05:12:22;95675.25;;;-4.42;100.00
13314;BME280;6725;48.112;11.604;2022-12-18T05:14:47;95683.19;;;-4.50;100.00
13314;BME280;6725;48.112;11.604;2022-12-18T05:17:13;95686.25;;;-4.57;100.00
13314;BME280;6725;48.112;11.604;2022-12-18T05:19:38;95698.84;;;-4.49;100.00
13314;BME280;6725;48.112;11.604;2022-12-18T05:22:03;95700.72;;;-4.36;100.00
13314;BME280;6725;48.112;11.604;2022-12-18T05:24:29;95713.34;;;-4.41;100.00
13314;BME280;6725;48.112;11.604;2022-12-18T05:26:54;95709.75;;;-4.37;100.00
13314;BME280;6725;48.112;11.604;2022-12-18T05:29:19;95720.28;;;-4.54;100.00
13314;BME280;6725;48.112;11.604;2022-12-18T05:31:45;95719.06;;;-4.48;100.00
13314;BME280;6725;48.112;11.604;2022-12-18T05:34:10;95724.91;;;-4.46;100.00
13314;BME280;6725;48.112;11.604;2022-12-18T05:36:35;95727.94;;;-4.39;100.00
13314;BME280;6725;48.112;11.604;2022-12-18T05:39:01;95730.16;;;-4.54;100.00
13314;BME280;6725;48.112;11.604;2022-12-18T05:41:27;95746.69;;;-4.44;100.00
13314;BME280;6725;48.112;11.604;2022-12-18T05:43:53;95754.28;;;-4.51;100.00
13314;BME280;6725;48.112;11.604;2022-12-18T05:46:19;95762.66;;;-4.44;100.00
13314;BME280;6725;48.112;11.604;2022-12-18T05:48:44;95767.69;;;-4.42;100.00
13314;BME280;6725;48.112;11.604;2022-12-18T05:51:15;95772.94;;;-4.51;100.00
13314;BME280;6725;48.112;11.604;2022-12-18T05:53:42;95774.53;;;-4.50;100.00
13314;BME280;6725;48.112;11.604;2022-12-18T05:56:10;95775.09;;;-4.39;100.00
13314;BME280;6725;48.112;11.604;2022-12-18T05:58:36;95778.06;;;-4.41;100.00
13314;BME280;6725;48.112;11.604;2022-12-18T06:01:11;95783.00;;;-4.48;100.00
13314;BME280;6725;48.112;11.604;2022-12-18T06:03:37;95803.03;;;-4.50;100.00
13314;BME280;6725;48.112;11.604;2022-12-18T06:06:03;95800.97;;;-4.53;100.00
13314;BME280;6725;48.112;11.604;2022-12-18T06:08:28;95810.22;;;-4.51;100.00
13314;BME280;6725;48.112;11.604;2022-12-18T06:10:54;95811.25;;;-4.47;100.00
13314;BME280;6725;48.112;11.604;2022-12-18T06:13:20;95813.91;;;-4.47;100.00
13314;BME280;6725;48.112;11.604;2022-12-18T06:15:45;95816.38;;;-4.50;100.00
13314;BME280;6725;48.112;11.604;2022-12-18T06:18:11;95818.22;;;-4.51;100.00
13314;BME280;6725;48.112;11.604;2022-12-18T06:20:36;95823.19;;;-4.58;100.00
13314;BME280;6725;48.112;11.604;2022-12-18T06:23:05;95822.19;;;-4.62;100.00
13314;BME280;6725;48.112;11.604;2022-12-18T06:25:30;95828.53;;;-4.58;100.00
13314;BME280;6725;48.112;11.604;2022-12-18T06:27:55;95832.34;;;-4.64;100.00
13314;BME280;6725;48.112;11.604;2022-12-18T06:30:21;95841.03;;;-4.58;100.00
13314;BME280;6725;48.112;11.604;2022-12-18T06:32:48;95845.09;;;-4.61;100.00
13314;BME280;6725;48.112;11.604;2022-12-18T06:35:13;95842.44;;;-4.61;100.00
13314;BME280;6725;48.112;11.604;2022-12-18T06:37:39;95848.72;;;-4.57;100.00
13314;BME280;6725;48.112;11.604;2022-12-18T06:40:05;95855.81;;;-4.66;100.00
13314;BME280;6725;48.112;11.604;2022-12-18T06:42:31;95859.00;;;-4.64;100.00
13314;BME280;6725;48.112;11.604;2022-12-18T06:44:57;95866.47;;;-4.66;100.00
13314;BME280;6725;48.112;11.604;2022-12-18T06:47:22;95863.34;;;-4.68;100.00
13314;BME280;6725;48.112;11.604;2022-12-18T06:49:47;95868.06;;;-4.65;100.00
13314;BME280;6725;48.112;11.604;2022-12-18T06:52:13;95869.25;;;-4.57;100.00
13314;BME280;6725;48.112;11.604;2022-12-18T06:54:39;95875.75;;;-4.50;100.00
13314;BME280;6725;48.112;11.604;2022-12-18T06:57:04;95871.91;;;-4.44;100.00
13314;BME280;6725;48.112;11.604;2022-12-18T06:59:30;95882.66;;;-4.35;100.00
13314;BME280;6725;48.112;11.604;2022-12-18T07:01:55;95905.25;;;-4.60;100.00
13314;BME280;6725;48.112;11.604;2022-12-18T07:04:20;95920.13;;;-4.72;100.00
13314;BME280;6725;48.112;11.604;2022-12-18T07:06:46;95930.75;;;-4.86;100.00
13314;BME280;6725;48.112;11.604;2022-12-18T07:09:11;95920.22;;;-4.91;100.00
13314;BME280;6725;48.112;11.604;2022-12-18T07:11:37;95922.19;;;-4.83;100.00
13314;BME280;6725;48.112;11.604;2022-12-18T07:14:02;95931.34;;;-4.89;100.00
13314;BME280;6725;48.112;11.604;2022-12-18T07:16:27;95926.88;;;-4.93;100.00
13314;BME280;6725;48.112;11.604;2022-12-18T07:18:56;95922.66;;;-4.81;100.00
13314;BME280;6725;48.112;11.604;2022-12-18T07:21:23;95932.75;;;-4.78;100.00
13314;BME280;6725;48.112;11.604;2022-12-18T07:23:49;95937.50;;;-4.75;100.00
13314;BME280;6725;48.112;11.604;2022-12-18T07:26:16;95941.03;;;-4.79;100.00
13314;BME280;6725;48.112;11.604;2022-12-18T07:28:42;95940.81;;;-4.83;100.00
13314;BME280;6725;48.112;11.604;2022-12-18T07:31:11;95946.72;;;-4.86;100.00
13314;BME280;6725;48.112;11.604;2022-12-18T07:33:37;95950.38;;;-4.82;100.00
13314;BME280;6725;48.112;11.604;2022-12-18T07:36:04;95952.53;;;-4.84;100.00
13314;BME280;6725;48.112;11.604;2022-12-18T07:38:30;95958.94;;;-4.85;100.00
13314;BME280;6725;48.112;11.604;2022-12-18T07:41:07;95962.13;;;-4.83;100.00
13314;BME280;6725;48.112;11.604;2022-12-18T07:43:34;95961.28;;;-4.97;100.00
13314;BME280;6725;48.112;11.604;2022-12-18T07:45:59;95953.69;;;-5.03;100.00
13314;BME280;6725;48.112;11.604;2022-12-18T07:48:25;95954.41;;;-4.98;100.00
13314;BME280;6725;48.112;11.604;2022-12-18T07:50:50;95954.97;;;-5.01;100.00
13314;BME280;6725;48.112;11.604;2022-12-18T07:53:15;95952.88;;;-5.04;100.00
13314;BME280;6725;48.112;11.604;2022-12-18T07:55:41;95934.00;;;-4.89;100.00
13314;BME280;6725;48.112;11.604;2022-12-18T07:58:07;95932.34;;;-4.85;100.00
13314;BME280;6725;48.112;11.604;2022-12-18T08:00:33;95933.84;;;-4.79;100.00
13314;BME280;6725;48.112;11.604;2022-12-18T08:02:59;95943.41;;;-4.78;100.00
13314;BME280;6725;48.112;11.604;2022-12-18T08:05:24;95944.97;;;-4.77;100.00
13314;BME280;6725;48.112;11.604;2022-12-18T08:07:50;95954.44;;;-4.84;100.00
13314;BME280;6725;48.112;11.604;2022-12-18T08:10:15;95965.47;;;-4.91;100.00
13314;BME280;6725;48.112;11.604;2022-12-18T08:12:41;95961.72;;;-4.90;100.00
13314;BME280;6725;48.112;11.604;2022-12-18T08:15:08;95970.03;;;-4.78;100.00
13314;BME280;6725;48.112;11.604;2022-12-18T08:17:33;95969.03;;;-4.82;100.00
13314;BME280;6725;48.112;11.604;2022-12-18T08:19:59;95975.06;;;-4.76;100.00
13314;BME280;6725;48.112;11.604;2022-12-18T08:22:24;95977.16;;;-4.60;100.00
13314;BME280;6725;48.112;11.604;2022-12-18T08:24:50;95968.75;;;-4.67;100.00
13314;BME280;6725;48.112;11.604;2022-12-18T08:27:15;95982.31;;;-4.50;100.00
13314;BME280;6725;48.112;11.604;2022-12-18T08:29:41;95996.69;;;-4.51;100.00
13314;BME280;6725;48.112;11.604;2022-12-18T08:32:06;96001.66;;;-4.58;100.00
13314;BME280;6725;48.112;11.604;2022-12-18T08:34:32;96000.88;;;-4.45;100.00
13314;BME280;6725;48.112;11.604;2022-12-18T08:36:57;96001.97;;;-4.32;100.00
13314;BME280;6725;48.112;11.604;2022-12-18T08:39:22;96007.00;;;-4.31;100.00
13314;BME280;6725;48.112;11.604;2022-12-18T08:41:48;96032.28;;;-4.28;100.00
13314;BME280;6725;48.112;11.604;2022-12-18T08:44:33;96042.53;;;-4.35;100.00
13314;BME280;6725;48.112;11.604;2022-12-18T08:47:06;96066.72;;;-4.64;100.00
13314;BME280;6725;48.112;11.604;2022-12-18T08:49:32;96070.34;;;-4.41;100.00
13314;BME280;6725;48.112;11.604;2022-12-18T08:51:57;96083.88;;;-4.38;100.00
13314;BME280;6725;48.112;11.604;2022-12-18T08:54:23;96084.25;;;-4.44;100.00
13314;BME280;6725;48.112;11.604;2022-12-18T08:56:49;96096.34;;;-4.52;100.00
13314;BME280;6725;48.112;11.604;2022-12-18T08:59:15;96106.16;;;-4.66;100.00
13314;BME280;6725;48.112;11.604;2022-12-18T09:01:41;96105.44;;;-4.53;100.00
13314;BME280;6725;48.112;11.604;2022-12-18T09:04:08;96109.09;;;-4.49;100.00
13314;BME280;6725;48.112;11.604;2022-12-18T09:06:34;96118.81;;;-4.39;100.00
13314;BME280;6725;48.112;11.604;2022-12-18T09:08:59;96124.63;;;-4.37;100.00
13314;BME280;6725;48.112;11.604;2022-12-18T09:11:26;96126.25;;;-4.23;100.00
13314;BME280;6725;48.112;11.604;2022-12-18T09:13:52;96136.75;;;-4.13;100.00
13314;BME280;6725;48.112;11.604;2022-12-18T09:16:19;96148.16;;;-4.26;100.00
13314;BME280;6725;48.112;11.604;2022-12-18T09:18:45;96153.91;;;-4.19;100.00
13314;BME280;6725;48.112;11.604;2022-12-18T09:21:32;96170.81;;;-4.42;100.00
13314;BME280;6725;48.112;11.604;2022-12-18T09:23:58;96173.94;;;-4.40;100.00
13314;BME280;6725;48.112;11.604;2022-12-18T09:26:25;96174.66;;;-4.34;100.00
13314;BME280;6725;48.112;11.604;2022-12-18T09:28:51;96171.91;;;-4.11;100.00
13314;BME280;6725;48.112;11.604;2022-12-18T09:31:18;96178.84;;;-4.10;100.00
13314;BME280;6725;48.112;11.604;2022-12-18T09:33:43;96182.50;;;-4.06;100.00
13314;BME280;6725;48.112;11.604;2022-12-18T09:36:12;96191.69;;;-3.98;100.00
13314;BME280;6725;48.112;11.604;2022-12-18T09:38:38;96203.16;;;-3.98;100.00
13314;BME280;6725;48.112;11.604;2022-12-18T09:43:50;96225.56;;;-3.99;100.00
13314;BME280;6725;48.112;11.604;2022-12-18T09:46:33;96224.13;;;-3.78;100.00
13314;BME280;6725;48.112;11.604;2022-12-18T09:49:02;96245.38;;;-4.05;100.00
13314;BME280;6725;48.112;11.604;2022-12-18T09:51:55;96251.78;;;-3.87;100.00
13314;BME280;6725;48.112;11.604;2022-12-18T09:54:31;96259.84;;;-3.92;100.00
13314;BME280;6725;48.112;11.604;2022-12-18T09:56:58;96258.41;;;-3.85;100.00
13314;BME280;6725;48.112;11.604;2022-12-18T09:59:25;96267.09;;;-4.11;100.00
13314;BME280;6725;48.112;11.604;2022-12-18T10:01:52;96279.03;;;-4.27;100.00
13314;BME280;6725;48.112;11.604;2022-12-18T10:04:17;96266.28;;;-4.12;100.00
13314;BME280;6725;48.112;11.604;2022-12-18T10:06:56;96276.56;;;-4.42;100.00
13314;BME280;6725;48.112;11.604;2022-12-18T10:09:38;96273.69;;;-4.27;100.00
13314;BME280;6725;48.112;11.604;2022-12-18T10:23:26;96258.44;;;-4.22;100.00
13314;BME280;6725;48.112;11.604;2022-12-18T10:25:53;96265.63;;;-4.04;100.00
13314;BME280;6725;48.112;11.604;2022-12-18T10:28:20;96275.28;;;-4.45;100.00
13314;BME280;6725;48.112;11.604;2022-12-18T10:30:46;96251.53;;;-4.23;100.00
13314;BME280;6725;48.112;11.604;2022-12-18T10:33:15;96254.09;;;-4.18;100.00
13314;BME280;6725;48.112;11.604;2022-12-18T10:35:42;96247.47;;;-4.20;100.00
13314;BME280;6725;48.112;11.604;2022-12-18T10:43:28;96246.03;;;-4.13;100.00
13314;BME280;6725;48.112;11.604;2022-12-18T10:48:27;96256.94;;;-4.28;100.00
13314;BME280;6725;48.112;11.604;2022-12-18T10:50:54;96259.22;;;-4.03;100.00
13314;BME280;6725;48.112;11.604;2022-12-18T10:53:23;96258.81;;;-4.10;100.00
13314;BME280;6725;48.112;11.604;2022-12-18T10:55:52;96260.09;;;-4.26;100.00
13314;BME280;6725;48.112;11.604;2022-12-18T10:58:27;96258.84;;;-4.15;100.00
13314;BME280;6725;48.112;11.604;2022-12-18T11:01:09;96253.38;;;-4.05;100.00
13314;BME280;6725;48.112;11.604;2022-12-18T11:03:39;96262.72;;;-3.89;100.00
13314;BME280;6725;48.112;11.604;2022-12-18T11:06:24;96263.63;;;-3.93;100.00
13314;BME280;6725;48.112;11.604;2022-12-18T11:09:21;96273.47;;;-3.75;100.00
13314;BME280;6725;48.112;11.604;2022-12-18T11:11:53;96287.41;;;-4.15;100.00
13314;BME280;6725;48.112;11.604;2022-12-18T11:16:46;96286.16;;;-3.86;100.00
13314;BME280;6725;48.112;11.604;2022-12-18T11:21:57;96278.38;;;-3.50;100.00
13314;BME280;6725;48.112;11.604;2022-12-18T11:24:30;96297.38;;;-3.52;100.00
13314;BME280;6725;48.112;11.604;2022-12-18T11:27:01;96303.84;;;-3.58;100.00
13314;BME280;6725;48.112;11.604;2022-12-18T11:29:38;96307.09;;;-3.61;100.00
13314;BME280;6725;48.112;11.604;2022-12-18T11:34:55;96320.63;;;-3.38;100.00
13314;BME280;6725;48.112;11.604;2022-12-18T11:37:22;96314.19;;;-3.38;100.00
13314;BME280;6725;48.112;11.604;2022-12-18T11:39:56;96323.66;;;-3.45;100.00
13314;BME280;6725;48.112;11.604;2022-12-18T11:42:38;96308.28;;;-3.34;100.00
13314;BME280;6725;48.112;11.604;2022-12-18T11:47:49;96312.94;;;-3.26;100.00
13314;BME280;6725;48.112;11.604;2022-12-18T11:50:20;96318.00;;;-3.11;100.00
13314;BME280;6725;48.112;11.604;2022-12-18T11:52:48;96315.75;;;-3.04;100.00
13314;BME280;6725;48.112;11.604;2022-12-18T11:55:15;96316.34;;;-3.07;100.00
13314;BME280;6725;48.112;11.604;2022-12-18T12:00:27;96332.22;;;-3.62;100.00
13314;BME280;6725;48.112;11.604;2022-12-18T12:03:20;96321.88;;;-3.50;100.00
13314;BME280;6725;48.112;11.604;2022-12-18T12:06:18;96328.22;;;-3.46;100.00
13314;BME280;6725;48.112;11.604;2022-12-18T12:14:26;96315.63;;;-3.96;100.00
13314;BME280;6725;48.112;11.604;2022-12-18T12:17:14;96310.28;;;-3.96;100.00
13314;BME280;6725;48.112;11.604;2022-12-18T12:19:51;96296.47;;;-3.98;100.00
13314;BME280;6725;48.112;11.604;2022-12-18T12:31:28;96272.91;;;-4.09;100.00
13314;BME280;6725;48.112;11.604;2022-12-18T12:33:54;96262.38;;;-4.01;100.00
13314;BME280;6725;48.112;11.604;2022-12-18T12:36:34;96254.91;;;-3.99;100.00
13314;BME280;6725;48.112;11.604;2022-12-18T12:39:07;96244.47;;;-3.82;100.00
13314;BME280;6725;48.112;11.604;2022-12-18T12:41:35;96260.16;;;-3.94;100.00
13314;BME280;6725;48.112;11.604;2022-12-18T12:44:33;96245.44;;;-3.91;100.00
13314;BME280;6725;48.112;11.604;2022-12-18T12:47:09;96242.63;;;-4.00;100.00
13314;BME280;6725;48.112;11.604;2022-12-18T12:49:38;96244.97;;;-4.12;100.00
13314;BME280;6725;48.112;11.604;2022-12-18T12:52:12;96247.28;;;-4.24;100.00
13314;BME280;6725;48.112;11.604;2022-12-18T12:54:39;96239.06;;;-4.09;100.00
13314;BME280;6725;48.112;11.604;2022-12-18T12:57:08;96238.75;;;-4.26;100.00
13314;BME280;6725;48.112;11.604;2022-12-18T13:00:15;96226.38;;;-4.17;100.00
13314;BME280;6725;48.112;11.604;2022-12-18T13:03:01;96221.47;;;-4.28;100.00
13314;BME280;6725;48.112;11.604;2022-12-18T13:08:09;96220.81;;;-4.02;100.00
13314;BME280;6725;48.112;11.604;2022-12-18T13:20:38;96226.94;;;-3.69;100.00
13314;BME280;6725;48.112;11.604;2022-12-18T13:26:33;96246.50;;;-3.74;100.00
13314;BME280;6725;48.112;11.604;2022-12-18T13:36:41;96235.34;;;-3.94;100.00
13314;BME280;6725;48.112;11.604;2022-12-18T13:41:45;96230.09;;;-3.81;100.00
13314;BME280;6725;48.112;11.604;2022-12-18T13:44:12;96230.25;;;-3.91;100.00
13314;BME280;6725;48.112;11.604;2022-12-18T13:46:49;96232.63;;;-3.89;100.00
13314;BME280;6725;48.112;11.604;2022-12-18T13:49:38;96225.91;;;-3.87;100.00
13314;BME280;6725;48.112;11.604;2022-12-18T13:52:18;96234.78;;;-3.91;100.00
13314;BME280;6725;48.112;11.604;2022-12-18T13:54:49;96223.81;;;-3.90;100.00
13314;BME280;6725;48.112;11.604;2022-12-18T13:59:58;96208.56;;;-4.03;100.00
13314;BME280;6725;48.112;11.604;2022-12-18T14:02:37;96201.63;;;-3.85;100.00
13314;BME280;6725;48.112;11.604;2022-12-18T14:05:02;96201.94;;;-3.73;100.00
13314;BME280;6725;48.112;11.604;2022-12-18T14:07:29;96199.34;;;-3.92;100.00
13314;BME280;6725;48.112;11.604;2022-12-18T14:09:57;96197.31;;;-4.00;100.00
13314;BME280;6725;48.112;11.604;2022-12-18T14:12:28;96203.09;;;-4.11;100.00
13314;BME280;6725;48.112;11.604;2022-12-18T14:17:42;96197.72;;;-4.25;100.00
13314;BME280;6725;48.112;11.604;2022-12-18T14:20:13;96190.78;;;-4.26;100.00
13314;BME280;6725;48.112;11.604;2022-12-18T14:22:43;96168.91;;;-4.23;100.00
13314;BME280;6725;48.112;11.604;2022-12-18T14:27:46;96176.94;;;-4.60;100.00
13314;BME280;6725;48.112;11.604;2022-12-18T14:30:51;96172.81;;;-4.71;100.00
13314;BME280;6725;48.112;11.604;2022-12-18T14:33:22;96170.59;;;-4.64;100.00
13314;BME280;6725;48.112;11.604;2022-12-18T14:35:59;96169.03;;;-4.65;100.00
13314;BME280;6725;48.112;11.604;2022-12-18T14:38:39;96152.66;;;-4.58;100.00
13314;BME280;6725;48.112;11.604;2022-12-18T14:41:09;96130.50;;;-4.54;100.00
13314;BME280;6725;48.112;11.604;2022-12-18T14:43:37;96124.56;;;-4.51;100.00
13314;BME280;6725;48.112;11.604;2022-12-18T14:46:05;96111.75;;;-4.49;100.00
13314;BME280;6725;48.112;11.604;2022-12-18T14:48:37;96108.59;;;-4.51;100.00